Time;durP1;ratioP1;P1;durP2;ratioP2;P2;SDS_P1;SDS_P2;PMS_P1;PMS_P2;Temp;Humidity;BMP_temperature;BMP_pressure;BME280_temperature;BME280_humidity;BME280_pressure;Samples;Min_cycle;Max_cycle;Signal;HPM_P1;HPM_P2
2022/07/28 00:01:34;;;;;;;;;;;27.30;36.50;;;;;;1579296;74;691;-68
2022/07/28 00:03:36;;;;;;;;;;;27.40;36.50;;;;;;1581790;74;1099;-68
2022/07/28 00:05:39;;;;;;;;;;;27.30;36.50;;;;;;1577675;74;589;-69
2022/07/28 00:07:41;;;;;;;;;;;27.40;36.60;;;;;;1562439;73;645;-72
2022/07/28 00:09:43;;;;;;;;;;;27.30;36.60;;;;;;1567717;74;677;-70
2022/07/28 00:11:45;;;;;;;;;;;27.30;36.60;;;;;;1573043;74;799;-72
2022/07/28 00:13:47;;;;;;;;;;;27.40;36.60;;;;;;1578235;74;1166;-68
2022/07/28 00:15:49;;;;;;;;;;;27.30;36.60;;;;;;1575801;74;1938;-70
2022/07/28 00:17:51;;;;;;;;;;;27.30;36.60;;;;;;1584315;74;680;-71
2022/07/28 00:19:53;;;;;;;;;;;27.30;36.60;;;;;;1576165;74;690;-72
2022/07/28 00:21:54;;;;;;;;;;;27.40;36.70;;;;;;1584431;74;684;-72
2022/07/28 00:23:56;;;;;;;;;;;27.30;36.60;;;;;;1583580;73;1135;-72
2022/07/28 00:25:58;;;;;;;;;;;27.40;36.70;;;;;;1573791;74;667;-70
2022/07/28 00:28:00;;;;;;;;;;;27.30;36.60;;;;;;1579213;74;678;-69
2022/07/28 00:30:02;;;;;;;;;;;27.40;36.70;;;;;;1574798;74;730;-72
2022/07/28 00:32:04;;;;;;;;;;;27.20;36.60;;;;;;1582786;74;697;-71
2022/07/28 00:34:06;;;;;;;;;;;27.40;36.60;;;;;;1577613;74;1164;-70
2022/07/28 00:36:08;;;;;;;;;;;27.30;36.70;;;;;;1580785;74;1925;-70
2022/07/28 00:38:10;;;;;;;;;;;27.20;36.70;;;;;;1580102;73;1434;-69
2022/07/28 00:40:12;;;;;;;;;;;27.20;36.80;;;;;;1562245;74;684;-70
2022/07/28 00:42:16;;;;;;;;;;;27.30;36.70;;;;;;1573839;74;713;-71
2022/07/28 00:44:17;;;;;;;;;;;27.30;36.80;;;;;;1579737;74;1905;-68
2022/07/28 00:46:20;;;;;;;;;;;27.20;36.80;;;;;;1578287;74;787;-68
2022/07/28 00:48:22;;;;;;;;;;;27.20;36.80;;;;;;1582908;74;688;-68
2022/07/28 00:50:23;;;;;;;;;;;27.30;36.90;;;;;;1579670;74;688;-67
2022/07/28 00:52:25;;;;;;;;;;;27.30;36.90;;;;;;1583658;73;698;-67
2022/07/28 00:56:28;;;;;;;;;;;27.30;37.00;;;;;;1570832;73;1934;-68
2022/07/28 00:58:30;;;;;;;;;;;27.30;37.00;;;;;;1572075;75;751;-68
2022/07/28 01:00:32;;;;;;;;;;;27.30;37.00;;;;;;1540480;75;604;-68
2022/07/28 01:02:33;;;;;;;;;;;27.30;37.00;;;;;;1575895;75;675;-69
2022/07/28 01:04:35;;;;;;;;;;;27.30;36.90;;;;;;1572842;74;1170;-70
2022/07/28 01:06:39;;;;;;;;;;;27.30;37.00;;;;;;1572623;75;644;-69
2022/07/28 01:08:42;;;;;;;;;;;27.30;36.90;;;;;;1535577;75;713;-68
2022/07/28 01:10:48;;;;;;;;;;;27.30;37.00;;;;;;1552210;75;783;-68
2022/07/28 01:12:52;;;;;;;;;;;27.30;37.00;;;;;;1556349;75;1741;-68
2022/07/28 01:15:04;;;;;;;;;;;27.30;37.00;;;;;;1564480;74;2153;-68
2022/07/28 01:17:09;;;;;;;;;;;27.30;37.00;;;;;;1555822;75;1158;-68
2022/07/28 01:19:13;;;;;;;;;;;27.30;37.10;;;;;;1549660;75;982;-71
2022/07/28 01:21:15;;;;;;;;;;;27.20;37.00;;;;;;1549280;75;1644;-71
2022/07/28 01:23:24;;;;;;;;;;;27.20;37.00;;;;;;1557592;75;674;-69
2022/07/28 01:25:45;;;;;;;;;;;27.30;37.00;;;;;;1554195;75;1137;-68
2022/07/28 01:28:00;;;;;;;;;;;27.20;37.00;;;;;;1546587;75;740;-68
2022/07/28 01:30:09;;;;;;;;;;;27.30;37.00;;;;;;1556773;75;1790;-67
2022/07/28 01:32:19;;;;;;;;;;;27.30;37.00;;;;;;1561540;75;1783;-69
2022/07/28 01:34:22;;;;;;;;;;;27.30;37.00;;;;;;1550726;75;1816;-68
2022/07/28 01:36:35;;;;;;;;;;;27.20;37.00;;;;;;1547780;75;1952;-68
2022/07/28 01:38:37;;;;;;;;;;;27.30;37.00;;;;;;1550387;75;933;-69
2022/07/28 01:40:38;;;;;;;;;;;27.30;37.00;;;;;;1563380;75;692;-68
2022/07/28 01:42:42;;;;;;;;;;;27.30;37.00;;;;;;1566201;75;738;-70
2022/07/28 01:44:44;;;;;;;;;;;27.30;37.10;;;;;;1555584;74;1660;-68
2022/07/28 01:46:46;;;;;;;;;;;27.30;37.00;;;;;;1548833;75;734;-69
2022/07/28 01:48:48;;;;;;;;;;;27.30;37.10;;;;;;1563513;75;766;-69
2022/07/28 01:50:50;;;;;;;;;;;27.30;37.00;;;;;;1579866;75;663;-68
2022/07/28 01:52:52;;;;;;;;;;;27.20;37.00;;;;;;1555939;75;766;-68
2022/07/28 01:54:54;;;;;;;;;;;27.20;36.90;;;;;;1557781;75;1140;-68
2022/07/28 01:56:56;;;;;;;;;;;27.20;37.00;;;;;;1558078;75;1939;-69
2022/07/28 01:58:59;;;;;;;;;;;27.20;37.00;;;;;;1555302;75;699;-68
2022/07/28 02:01:01;;;;;;;;;;;27.20;36.90;;;;;;1550300;75;527;-65
2022/07/28 02:03:04;;;;;;;;;;;27.30;37.00;;;;;;1557699;75;736;-68
2022/07/28 02:05:06;;;;;;;;;;;27.20;36.90;;;;;;1550300;75;1159;-72
2022/07/28 02:07:08;;;;;;;;;;;27.20;37.10;;;;;;1556573;75;810;-69
2022/07/28 02:09:10;;;;;;;;;;;27.30;37.10;;;;;;1565864;75;838;-70
2022/07/28 02:13:32;;;;;;;;;;;27.30;37.10;;;;;;1551080;75;931;-68
2022/07/28 02:15:34;;;;;;;;;;;27.30;37.10;;;;;;1559355;75;1947;-68
2022/07/28 02:17:36;;;;;;;;;;;27.20;37.10;;;;;;1550707;75;665;-68
2022/07/28 02:19:38;;;;;;;;;;;27.20;37.10;;;;;;1553334;75;680;-69
2022/07/28 02:21:41;;;;;;;;;;;27.20;37.20;;;;;;1560348;75;827;-69
2022/07/28 02:23:43;;;;;;;;;;;27.30;37.10;;;;;;1541835;75;801;-69
2022/07/28 02:25:45;;;;;;;;;;;27.20;37.10;;;;;;1545107;74;1142;-69
2022/07/28 02:27:54;;;;;;;;;;;27.30;37.20;;;;;;1558827;75;750;-69
2022/07/28 02:30:00;;;;;;;;;;;27.20;37.20;;;;;;1557430;75;1569;-70
2022/07/28 02:32:03;;;;;;;;;;;27.20;37.20;;;;;;1555447;75;1049;-69
2022/07/28 02:34:05;;;;;;;;;;;27.30;37.20;;;;;;1567876;75;1885;-67
2022/07/28 02:36:09;;;;;;;;;;;27.30;37.20;;;;;;1548577;75;1947;-68
2022/07/28 02:38:13;;;;;;;;;;;27.30;37.30;;;;;;1555572;75;837;-68
2022/07/28 02:40:15;;;;;;;;;;;27.20;37.30;;;;;;1549856;75;718;-70
2022/07/28 02:42:18;;;;;;;;;;;27.30;37.30;;;;;;1558373;75;713;-67
2022/07/28 02:44:21;;;;;;;;;;;27.30;37.30;;;;;;1551071;75;751;-67
2022/07/28 02:46:23;;;;;;;;;;;27.30;37.40;;;;;;1564956;75;1164;-69
2022/07/28 02:48:26;;;;;;;;;;;27.30;37.30;;;;;;1567703;75;777;-67
2022/07/28 02:50:28;;;;;;;;;;;27.20;37.30;;;;;;1571101;75;736;-67
2022/07/28 02:52:30;;;;;;;;;;;27.30;37.30;;;;;;1552673;75;672;-69
2022/07/28 02:54:32;;;;;;;;;;;27.20;37.30;;;;;;1560876;75;1149;-69
2022/07/28 02:56:34;;;;;;;;;;;27.20;37.30;;;;;;1554824;75;1965;-68
2022/07/28 02:58:36;;;;;;;;;;;27.30;37.40;;;;;;1561494;75;628;-68
2022/07/28 03:00:37;;;;;;;;;;;27.20;37.40;;;;;;1551917;75;646;-68
2022/07/28 03:02:40;;;;;;;;;;;27.20;37.40;;;;;;1573907;75;707;-68
2022/07/28 03:07:02;;;;;;;;;;;27.20;37.50;;;;;;1557873;75;1647;-64
2022/07/28 03:09:04;;;;;;;;;;;27.20;37.60;;;;;;1560073;75;689;-67
2022/07/28 03:11:09;;;;;;;;;;;27.20;37.70;;;;;;1556111;75;686;-68
2022/07/28 03:13:11;;;;;;;;;;;27.20;37.60;;;;;;1564055;75;607;-67
2022/07/28 03:15:13;;;;;;;;;;;27.20;37.70;;;;;;1560815;73;1137;-68
2022/07/28 03:17:15;;;;;;;;;;;27.20;37.70;;;;;;1567369;75;1925;-68
2022/07/28 03:19:17;;;;;;;;;;;27.30;37.70;;;;;;1558051;75;661;-67
2022/07/28 03:21:19;;;;;;;;;;;27.20;37.70;;;;;;1554056;75;689;-68
2022/07/28 03:23:21;;;;;;;;;;;27.20;37.60;;;;;;1557821;74;688;-67
2022/07/28 03:25:23;;;;;;;;;;;27.20;37.70;;;;;;1547753;75;1136;-67
2022/07/28 03:27:29;;;;;;;;;;;27.20;37.60;;;;;;1554513;75;1579;-67
2022/07/28 03:29:31;;;;;;;;;;;27.20;37.60;;;;;;1540506;75;670;-68
2022/07/28 03:31:33;;;;;;;;;;;27.20;37.70;;;;;;1561223;75;722;-67
2022/07/28 03:33:35;;;;;;;;;;;27.20;37.70;;;;;;1554323;75;734;-67
2022/07/28 03:35:38;;;;;;;;;;;27.20;37.70;;;;;;1565024;75;1163;-69
2022/07/28 03:37:42;;;;;;;;;;;27.20;37.70;;;;;;1583477;75;1941;-67
2022/07/28 03:39:46;;;;;;;;;;;27.20;37.70;;;;;;1575391;75;1816;-69
2022/07/28 03:41:48;;;;;;;;;;;27.20;37.70;;;;;;1577812;75;1090;-66
2022/07/28 03:43:50;;;;;;;;;;;27.30;37.70;;;;;;1562892;75;705;-66
2022/07/28 03:45:52;;;;;;;;;;;27.20;37.70;;;;;;1551359;75;1152;-67
2022/07/28 03:47:54;;;;;;;;;;;27.20;37.80;;;;;;1564660;75;720;-67
2022/07/28 03:49:56;;;;;;;;;;;27.20;37.80;;;;;;1569622;75;718;-70
2022/07/28 03:51:58;;;;;;;;;;;27.20;37.80;;;;;;1562656;75;789;-67
2022/07/28 03:54:00;;;;;;;;;;;27.30;37.80;;;;;;1553960;75;754;-70
2022/07/28 03:56:02;;;;;;;;;;;27.30;37.80;;;;;;1558572;75;1932;-69
2022/07/28 03:58:04;;;;;;;;;;;27.30;37.70;;;;;;1561712;75;764;-68
2022/07/28 04:00:06;;;;;;;;;;;27.30;37.70;;;;;;1573299;75;668;-69
2022/07/28 04:02:08;;;;;;;;;;;27.20;37.70;;;;;;1552545;75;664;-69
2022/07/28 04:04:10;;;;;;;;;;;27.20;37.70;;;;;;1557860;74;716;-69
2022/07/28 04:06:12;;;;;;;;;;;27.20;37.70;;;;;;1551325;74;1145;-71
2022/07/28 04:08:14;;;;;;;;;;;27.20;37.70;;;;;;1576037;75;783;-69
2022/07/28 04:10:16;;;;;;;;;;;27.20;37.70;;;;;;1566156;75;685;-69
2022/07/28 04:12:18;;;;;;;;;;;27.10;37.70;;;;;;1567618;75;714;-70
2022/07/28 04:14:20;;;;;;;;;;;27.10;37.80;;;;;;1558976;75;691;-69
2022/07/28 04:16:22;;;;;;;;;;;27.10;37.80;;;;;;1558118;75;1947;-69
2022/07/28 04:18:24;;;;;;;;;;;27.10;37.80;;;;;;1560748;75;698;-69
2022/07/28 04:20:26;;;;;;;;;;;27.10;37.80;;;;;;1560443;75;679;-68
2022/07/28 04:22:28;;;;;;;;;;;27.20;37.80;;;;;;1567746;75;1554;-69
2022/07/28 04:24:30;;;;;;;;;;;27.10;37.80;;;;;;1550903;75;1143;-69
2022/07/28 04:26:32;;;;;;;;;;;27.20;37.90;;;;;;1563042;75;725;-69
2022/07/28 04:28:34;;;;;;;;;;;27.10;37.90;;;;;;1554999;75;746;-69
2022/07/28 04:30:36;;;;;;;;;;;27.10;37.90;;;;;;1558604;75;701;-69
2022/07/28 04:32:38;;;;;;;;;;;27.10;38.00;;;;;;1566266;75;646;-68
2022/07/28 04:34:40;;;;;;;;;;;27.20;37.90;;;;;;1552448;74;1155;-68
2022/07/28 04:36:42;;;;;;;;;;;27.10;37.90;;;;;;1570145;75;1928;-68
2022/07/28 04:38:44;;;;;;;;;;;27.10;37.90;;;;;;1551796;75;751;-69
2022/07/28 04:40:46;;;;;;;;;;;27.20;37.90;;;;;;1558341;75;691;-71
2022/07/28 04:42:49;;;;;;;;;;;27.10;37.90;;;;;;1559765;75;849;-71
2022/07/28 04:44:51;;;;;;;;;;;27.10;38.00;;;;;;1551499;75;1153;-69
2022/07/28 04:46:53;;;;;;;;;;;27.10;38.10;;;;;;1556143;75;717;-70
2022/07/28 04:48:54;;;;;;;;;;;27.20;38.00;;;;;;1564597;75;681;-67
2022/07/28 04:50:56;;;;;;;;;;;27.10;38.00;;;;;;1548668;75;757;-69
2022/07/28 04:52:58;;;;;;;;;;;27.10;37.90;;;;;;1549053;75;742;-69
2022/07/28 04:55:00;;;;;;;;;;;27.10;37.90;;;;;;1552330;75;1170;-69
2022/07/28 04:57:02;;;;;;;;;;;27.20;37.90;;;;;;1544551;75;1932;-68
2022/07/28 04:59:04;;;;;;;;;;;27.10;37.90;;;;;;1557593;75;617;-70
2022/07/28 05:01:06;;;;;;;;;;;27.20;37.90;;;;;;1539011;75;722;-69
2022/07/28 05:03:08;;;;;;;;;;;27.10;37.90;;;;;;1546337;75;688;-70
2022/07/28 05:05:10;;;;;;;;;;;27.10;37.90;;;;;;1545043;75;1181;-69
2022/07/28 05:07:11;;;;;;;;;;;27.10;38.00;;;;;;1550974;75;738;-68
2022/07/28 05:09:13;;;;;;;;;;;27.20;37.90;;;;;;1548685;75;705;-67
2022/07/28 05:11:16;;;;;;;;;;;27.10;37.90;;;;;;1547615;75;704;-68
2022/07/28 05:13:17;;;;;;;;;;;27.10;37.90;;;;;;1554388;75;677;-70
2022/07/28 05:15:19;;;;;;;;;;;27.10;37.90;;;;;;1550038;75;1153;-69
2022/07/28 05:17:21;;;;;;;;;;;27.10;37.90;;;;;;1559011;75;1926;-70
2022/07/28 05:19:23;;;;;;;;;;;27.20;38.10;;;;;;1547463;75;1372;-71
2022/07/28 05:21:25;;;;;;;;;;;27.20;38.10;;;;;;1565119;75;705;-69
2022/07/28 05:23:27;;;;;;;;;;;27.10;38.00;;;;;;1547630;75;730;-69
2022/07/28 05:25:29;;;;;;;;;;;27.10;37.90;;;;;;1542105;75;1160;-69
2022/07/28 05:27:30;;;;;;;;;;;27.10;37.90;;;;;;1568049;75;713;-69
2022/07/28 05:29:33;;;;;;;;;;;27.10;38.00;;;;;;1573068;75;687;-71
2022/07/28 05:31:35;;;;;;;;;;;27.10;38.00;;;;;;1560204;75;709;-69
2022/07/28 05:33:36;;;;;;;;;;;27.00;38.10;;;;;;1541146;75;695;-70
2022/07/28 05:35:38;;;;;;;;;;;27.00;38.10;;;;;;1551129;74;1152;-71
2022/07/28 05:37:40;;;;;;;;;;;27.00;38.20;;;;;;1559383;75;1930;-69
2022/07/28 05:39:42;;;;;;;;;;;27.00;38.20;;;;;;1557425;75;642;-69
2022/07/28 05:41:44;;;;;;;;;;;27.00;38.30;;;;;;1558136;75;720;-69
2022/07/28 05:43:46;;;;;;;;;;;26.90;37.70;;;;;;1547831;75;733;-67
2022/07/28 05:45:48;;;;;;;;;;;26.90;37.80;;;;;;1556541;75;1097;-67
2022/07/28 05:47:51;;;;;;;;;;;27.00;38.50;;;;;;1560232;75;755;-68
2022/07/28 05:49:53;;;;;;;;;;;26.90;37.80;;;;;;1559251;75;655;-67
2022/07/28 05:51:55;;;;;;;;;;;27.00;38.60;;;;;;1548416;75;753;-66
2022/07/28 05:53:56;;;;;;;;;;;27.00;38.50;;;;;;1553874;75;664;-68
2022/07/28 05:55:58;;;;;;;;;;;26.90;37.90;;;;;;1561088;74;1159;-66
2022/07/28 05:58:00;;;;;;;;;;;26.90;37.90;;;;;;1564664;75;1934;-68
2022/07/28 06:00:03;;;;;;;;;;;26.90;38.00;;;;;;1556099;75;660;-67
2022/07/28 06:02:05;;;;;;;;;;;26.90;38.10;;;;;;1554256;75;735;-67
2022/07/28 06:04:07;;;;;;;;;;;26.90;38.10;;;;;;1565609;75;676;-68
2022/07/28 06:06:09;;;;;;;;;;;26.90;38.10;;;;;;1548235;75;1156;-69
2022/07/28 06:08:11;;;;;;;;;;;26.90;38.10;;;;;;1561743;75;841;-69
2022/07/28 06:10:13;;;;;;;;;;;26.80;38.10;;;;;;1556599;75;726;-67
2022/07/28 06:12:15;;;;;;;;;;;26.80;38.10;;;;;;1546454;75;620;-68
2022/07/28 06:14:17;;;;;;;;;;;26.90;38.20;;;;;;1541134;75;722;-67
2022/07/28 06:16:20;;;;;;;;;;;26.80;38.20;;;;;;1545572;75;1612;-67
2022/07/28 06:18:21;;;;;;;;;;;26.80;38.20;;;;;;1539963;75;1920;-67
2022/07/28 06:20:24;;;;;;;;;;;26.80;38.20;;;;;;1543139;75;735;-67
2022/07/28 06:22:25;;;;;;;;;;;26.80;38.30;;;;;;1545375;75;683;-67
2022/07/28 06:24:28;;;;;;;;;;;26.80;38.40;;;;;;1549315;75;1238;-67
2022/07/28 06:26:30;;;;;;;;;;;26.80;38.40;;;;;;1549036;75;759;-68
2022/07/28 06:28:32;;;;;;;;;;;26.90;38.40;;;;;;1551326;75;741;-67
2022/07/28 06:30:34;;;;;;;;;;;26.80;38.40;;;;;;1551453;75;699;-67
2022/07/28 06:32:35;;;;;;;;;;;26.80;38.40;;;;;;1542908;75;837;-67
2022/07/28 06:34:37;;;;;;;;;;;26.80;38.50;;;;;;1546289;75;1109;-70
2022/07/28 06:36:39;;;;;;;;;;;26.80;38.50;;;;;;1547858;75;714;-68
2022/07/28 06:38:41;;;;;;;;;;;26.80;38.60;;;;;;1551905;75;1937;-68
2022/07/28 06:40:44;;;;;;;;;;;26.80;38.60;;;;;;1543195;75;758;-67
2022/07/28 06:42:46;;;;;;;;;;;26.80;38.60;;;;;;1541074;75;752;-67
2022/07/28 06:44:49;;;;;;;;;;;26.80;39.20;;;;;;1545662;75;1108;-66
2022/07/28 06:46:52;;;;;;;;;;;26.90;38.90;;;;;;1558907;75;752;-66
2022/07/28 06:48:54;;;;;;;;;;;27.00;39.80;;;;;;1558108;75;766;-65
2022/07/28 06:50:58;;;;;;;;;;;27.10;39.30;;;;;;1553930;75;731;-68
2022/07/28 06:53:00;;;;;;;;;;;27.10;39.40;;;;;;1548338;75;728;-68
2022/07/28 06:55:21;;;;;;;;;;;27.10;39.30;;;;;;1547074;75;1188;-63
2022/07/28 06:57:23;;;;;;;;;;;27.20;39.30;;;;;;1590755;72;1938;-56
2022/07/28 06:59:25;;;;;;;;;;;27.20;39.20;;;;;;1590135;73;671;-56
2022/07/28 07:01:27;;;;;;;;;;;27.20;39.20;;;;;;1604115;73;687;-56
2022/07/28 07:03:29;;;;;;;;;;;27.30;39.10;;;;;;1607848;72;1227;-55
2022/07/28 07:05:30;;;;;;;;;;;27.40;39.20;;;;;;1611790;72;636;-55
2022/07/28 07:07:32;;;;;;;;;;;27.40;38.90;;;;;;1620264;72;650;-56
2022/07/28 07:09:34;;;;;;;;;;;27.40;39.20;;;;;;1622288;72;705;-56
2022/07/28 07:11:36;;;;;;;;;;;27.40;39.20;;;;;;1616626;72;1480;-56
2022/07/28 07:13:38;;;;;;;;;;;27.50;38.90;;;;;;1607132;72;1103;-55
2022/07/28 07:15:40;;;;;;;;;;;27.50;39.10;;;;;;1607453;72;762;-56
2022/07/28 07:17:42;;;;;;;;;;;27.50;39.20;;;;;;1624521;72;1928;-57
2022/07/28 07:19:44;;;;;;;;;;;27.50;38.90;;;;;;1612902;72;666;-56
2022/07/28 07:21:46;;;;;;;;;;;27.70;39.20;;;;;;1610759;72;670;-56
2022/07/28 07:23:48;;;;;;;;;;;27.50;38.90;;;;;;1613105;72;664;-56
2022/07/28 07:25:49;;;;;;;;;;;27.60;39.10;;;;;;1574498;73;1453;-56
2022/07/28 07:27:51;;;;;;;;;;;27.50;39.20;;;;;;1569177;73;673;-56
2022/07/28 07:29:53;;;;;;;;;;;27.60;39.10;;;;;;1572223;73;692;-56
2022/07/28 07:31:57;;;;;;;;;;;27.70;39.10;;;;;;1578687;74;1189;-55
2022/07/28 07:33:59;;;;;;;;;;;27.70;39.00;;;;;;1572987;74;644;-56
2022/07/28 07:36:01;;;;;;;;;;;27.70;39.40;;;;;;1569385;75;742;-55
2022/07/28 07:38:03;;;;;;;;;;;27.70;39.40;;;;;;1572699;73;1952;-55
2022/07/28 07:40:05;;;;;;;;;;;27.70;39.10;;;;;;1574706;74;1437;-56
2022/07/28 07:42:07;;;;;;;;;;;27.70;39.00;;;;;;1591341;73;1462;-56
2022/07/28 07:44:09;;;;;;;;;;;27.70;39.20;;;;;;1583872;74;720;-56
2022/07/28 07:46:11;;;;;;;;;;;27.80;39.00;;;;;;1581965;74;682;-56
2022/07/28 07:48:13;;;;;;;;;;;27.80;39.20;;;;;;1578795;73;690;-56
2022/07/28 07:50:15;;;;;;;;;;;27.80;38.90;;;;;;1585084;73;759;-56
2022/07/28 07:52:17;;;;;;;;;;;27.90;38.90;;;;;;1582780;74;1179;-55
2022/07/28 07:54:20;;;;;;;;;;;27.80;39.20;;;;;;1582997;73;1432;-55
2022/07/28 07:56:22;;;;;;;;;;;27.90;39.00;;;;;;1581240;74;789;-55
2022/07/28 07:58:24;;;;;;;;;;;28.00;39.40;;;;;;1589676;74;1903;-55
2022/07/28 08:00:26;;;;;;;;;;;28.00;39.60;;;;;;1581332;74;663;-55
2022/07/28 08:02:28;;;;;;;;;;;28.00;39.30;;;;;;1579306;74;1142;-55
2022/07/28 08:04:30;;;;;;;;;;;28.00;39.40;;;;;;1591273;74;690;-57
2022/07/28 08:06:32;;;;;;;;;;;28.00;39.50;;;;;;1585370;74;692;-55
2022/07/28 08:08:34;;;;;;;;;;;28.00;39.40;;;;;;1584065;74;1483;-58
2022/07/28 08:10:36;;;;;;;;;;;28.10;39.30;;;;;;1580425;74;676;-58
2022/07/28 08:12:38;;;;;;;;;;;28.00;39.40;;;;;;1581164;74;1105;-58
2022/07/28 08:14:40;;;;;;;;;;;27.90;38.90;;;;;;1580602;73;792;-58
2022/07/28 08:16:41;;;;;;;;;;;28.00;39.50;;;;;;1591549;74;681;-56
2022/07/28 08:18:43;;;;;;;;;;;28.00;39.40;;;;;;1593156;73;1950;-57
2022/07/28 08:20:45;;;;;;;;;;;28.00;39.40;;;;;;1588695;74;669;-55
2022/07/28 08:22:48;;;;;;;;;;;28.00;39.40;;;;;;1588871;74;1702;-57
2022/07/28 08:24:50;;;;;;;;;;;28.00;39.20;;;;;;1587470;74;778;-57
2022/07/28 08:26:52;;;;;;;;;;;28.10;39.20;;;;;;1594617;73;752;-56
2022/07/28 08:28:53;;;;;;;;;;;28.10;39.20;;;;;;1595857;74;664;-57
2022/07/28 08:30:55;;;;;;;;;;;28.10;39.20;;;;;;1596192;73;706;-57
2022/07/28 08:32:57;;;;;;;;;;;28.00;39.40;;;;;;1588218;73;1136;-56
2022/07/28 08:34:59;;;;;;;;;;;28.00;39.20;;;;;;1575826;74;687;-58
2022/07/28 08:37:01;;;;;;;;;;;28.00;39.20;;;;;;1576153;73;1551;-56
2022/07/28 08:39:04;;;;;;;;;;;28.00;39.40;;;;;;1580546;73;1933;-58
2022/07/28 08:41:06;;;;;;;;;;;28.00;39.30;;;;;;1595598;73;697;-57
2022/07/28 08:43:24;;;;;;;;;;;27.90;38.60;;;;;;1590596;73;1080;-56
2022/07/28 08:45:26;;;;;;;;;;;28.00;39.20;;;;;;1595450;74;661;-57
2022/07/28 08:47:30;;;;;;;;;;;27.90;38.70;;;;;;1583862;73;655;-56
2022/07/28 08:49:32;;;;;;;;;;;28.00;39.40;;;;;;1593821;74;1456;-58
2022/07/28 08:51:33;;;;;;;;;;;27.90;38.80;;;;;;1602949;73;663;-57
2022/07/28 08:53:36;;;;;;;;;;;27.90;38.90;;;;;;1591666;74;1136;-58
2022/07/28 08:55:38;;;;;;;;;;;27.90;38.90;;;;;;1594141;73;655;-57
2022/07/28 08:57:41;;;;;;;;;;;28.00;39.50;;;;;;1587318;73;690;-57
2022/07/28 08:59:43;;;;;;;;;;;27.90;39.00;;;;;;1588939;74;1934;-57
2022/07/28 09:01:45;;;;;;;;;;;27.90;38.90;;;;;;1590605;73;641;-57
2022/07/28 09:03:47;;;;;;;;;;;28.00;39.60;;;;;;1572318;73;1474;-58
2022/07/28 09:05:49;;;;;;;;;;;27.90;38.90;;;;;;1583546;73;633;-57
2022/07/28 09:07:51;;;;;;;;;;;27.90;39.00;;;;;;1595412;74;692;-57
2022/07/28 09:09:53;;;;;;;;;;;27.90;39.30;;;;;;1586319;73;776;-56
2022/07/28 09:11:55;;;;;;;;;;;27.90;39.00;;;;;;1595779;74;1148;-57
2022/07/28 09:13:57;;;;;;;;;;;27.90;39.20;;;;;;1587106;73;728;-57
2022/07/28 09:15:59;;;;;;;;;;;27.90;39.20;;;;;;1591276;73;678;-58
2022/07/28 09:18:00;;;;;;;;;;;27.90;39.10;;;;;;1595539;74;1937;-57
2022/07/28 09:20:03;;;;;;;;;;;27.90;39.10;;;;;;1578855;73;690;-56
2022/07/28 09:22:05;;;;;;;;;;;28.00;39.70;;;;;;1580487;73;1183;-58
2022/07/28 09:24:07;;;;;;;;;;;28.00;39.80;;;;;;1580424;73;678;-59
2022/07/28 09:26:09;;;;;;;;;;;27.80;39.30;;;;;;1579809;73;673;-57
2022/07/28 09:28:16;;;;;;;;;;;27.90;39.20;;;;;;1595580;74;684;-56
2022/07/28 09:30:31;;;;;;;;;;;27.90;39.50;;;;;;1590889;74;901;-58
2022/07/28 09:32:33;;;;;;;;;;;27.80;39.30;;;;;;1592852;73;1460;-58
2022/07/28 09:34:45;;;;;;;;;;;27.90;39.40;;;;;;1595772;74;910;-57
2022/07/28 09:36:47;;;;;;;;;;;27.90;39.20;;;;;;1590526;73;683;-58
2022/07/28 09:38:49;;;;;;;;;;;27.90;39.30;;;;;;1592894;73;1932;-57
2022/07/28 09:40:58;;;;;;;;;;;27.90;39.30;;;;;;1595835;74;664;-57
2022/07/28 09:43:00;;;;;;;;;;;27.90;39.20;;;;;;1595576;74;1090;-57
2022/07/28 09:45:06;;;;;;;;;;;27.90;39.30;;;;;;1594504;73;581;-59
2022/07/28 09:47:23;;;;;;;;;;;27.90;39.30;;;;;;1592354;73;1545;-56
2022/07/28 09:49:41;;;;;;;;;;;27.80;39.40;;;;;;1594578;73;679;-59
2022/07/28 09:51:43;;;;;;;;;;;27.90;39.60;;;;;;1592484;73;695;-57
2022/07/28 09:53:45;;;;;;;;;;;27.80;39.50;;;;;;1565548;74;1247;-57
2022/07/28 09:55:54;;;;;;;;;;;27.80;39.40;;;;;;1584933;73;698;-59
2022/07/28 09:57:55;;;;;;;;;;;27.80;39.60;;;;;;1591775;73;786;-57
2022/07/28 09:59:57;;;;;;;;;;;27.80;39.60;;;;;;1586614;74;1936;-57
2022/07/28 10:02:00;;;;;;;;;;;27.70;39.60;;;;;;1585975;73;1153;-58
2022/07/28 10:04:01;;;;;;;;;;;27.80;39.60;;;;;;1589974;73;674;-57
2022/07/28 10:06:10;;;;;;;;;;;27.80;39.70;;;;;;1580482;73;662;-56
2022/07/28 10:08:12;;;;;;;;;;;27.80;39.60;;;;;;1576274;73;906;-59
2022/07/28 10:10:14;;;;;;;;;;;27.80;39.60;;;;;;1585388;73;713;-56
2022/07/28 10:12:16;;;;;;;;;;;27.80;40.00;;;;;;1584726;73;1139;-57
2022/07/28 10:14:22;;;;;;;;;;;27.80;39.60;;;;;;1587908;73;1430;-56
2022/07/28 10:16:23;;;;;;;;;;;27.80;39.80;;;;;;1584057;73;1609;-57
2022/07/28 10:18:25;;;;;;;;;;;27.80;39.60;;;;;;1587327;74;1946;-58
2022/07/28 10:20:27;;;;;;;;;;;27.70;39.60;;;;;;1582834;73;729;-57
2022/07/28 10:22:32;;;;;;;;;;;27.80;39.60;;;;;;1589431;73;1128;-58
2022/07/28 10:24:34;;;;;;;;;;;27.70;39.60;;;;;;1605715;73;2045;-58
2022/07/28 10:26:39;;;;;;;;;;;27.70;39.70;;;;;;1595895;73;694;-57
2022/07/28 10:28:42;;;;;;;;;;;27.70;39.70;;;;;;1569635;74;1565;-56
2022/07/28 10:30:45;;;;;;;;;;;27.70;39.70;;;;;;1582058;73;694;-57
2022/07/28 10:32:47;;;;;;;;;;;27.70;39.70;;;;;;1587941;73;1078;-57
2022/07/28 10:34:50;;;;;;;;;;;27.70;39.70;;;;;;1582201;73;693;-57
2022/07/28 10:36:54;;;;;;;;;;;27.70;39.80;;;;;;1581629;73;652;-57
2022/07/28 10:39:00;;;;;;;;;;;27.60;39.70;;;;;;1586244;73;1899;-57
2022/07/28 10:41:03;;;;;;;;;;;27.60;39.70;;;;;;1592537;74;756;-57
2022/07/28 10:43:05;;;;;;;;;;;27.70;39.80;;;;;;1591064;73;1434;-57
2022/07/28 10:45:07;;;;;;;;;;;27.60;39.70;;;;;;1590853;73;675;-57
2022/07/28 10:47:09;;;;;;;;;;;27.70;39.80;;;;;;1577665;73;682;-59
2022/07/28 10:49:12;;;;;;;;;;;27.60;39.70;;;;;;1576520;73;691;-59
2022/07/28 10:51:14;;;;;;;;;;;27.70;39.70;;;;;;1582452;74;739;-57
2022/07/28 10:53:17;;;;;;;;;;;27.70;39.60;;;;;;1583202;74;1148;-57
2022/07/28 10:55:24;;;;;;;;;;;27.60;39.60;;;;;;1581622;74;717;-57
2022/07/28 10:57:26;;;;;;;;;;;27.70;39.70;;;;;;1584141;73;1505;-58
2022/07/28 10:59:29;;;;;;;;;;;27.60;39.70;;;;;;1588468;73;1925;-57
2022/07/28 11:01:35;;;;;;;;;;;27.60;39.70;;;;;;1584429;73;972;-57
2022/07/28 11:03:45;;;;;;;;;;;27.60;39.70;;;;;;1583098;74;1176;-58
2022/07/28 11:05:47;;;;;;;;;;;27.60;39.70;;;;;;1579002;73;708;-58
2022/07/28 11:07:49;;;;;;;;;;;27.70;39.70;;;;;;1584697;73;722;-57
2022/07/28 11:09:52;;;;;;;;;;;27.60;39.60;;;;;;1584547;73;679;-57
2022/07/28 11:11:56;;;;;;;;;;;27.50;39.70;;;;;;1582408;73;1573;-57
2022/07/28 11:14:06;;;;;;;;;;;27.50;39.90;;;;;;1575770;74;756;-57
2022/07/28 11:16:15;;;;;;;;;;;27.60;40.10;;;;;;1580861;74;1019;-56
2022/07/28 11:18:18;;;;;;;;;;;27.50;40.00;;;;;;1581037;74;670;-56
2022/07/28 11:20:20;;;;;;;;;;;27.50;40.10;;;;;;1585827;74;1921;-56
2022/07/28 11:22:27;;;;;;;;;;;27.50;40.20;;;;;;1579195;73;1159;-56
2022/07/28 11:24:26;;;;;;;;;;;27.60;40.10;;;;;;1579462;73;1447;-56
2022/07/28 11:26:33;;;;;;;;;;;27.60;40.10;;;;;;1582472;73;666;-57
2022/07/28 11:28:32;;;;;;;;;;;27.50;40.10;;;;;;1582433;74;1519;-56
2022/07/28 11:30:42;;;;;;;;;;;27.50;40.00;;;;;;1580811;73;661;-59
2022/07/28 11:32:55;;;;;;;;;;;27.50;40.00;;;;;;1581147;73;1146;-56
2022/07/28 11:35:05;;;;;;;;;;;27.50;40.20;;;;;;1575385;74;824;-57
2022/07/28 11:37:08;;;;;;;;;;;27.50;40.10;;;;;;1584279;74;671;-56
2022/07/28 11:39:24;;;;;;;;;;;27.40;40.20;;;;;;1584496;73;1921;-56
2022/07/28 11:41:33;;;;;;;;;;;27.40;40.20;;;;;;1578888;74;707;-56
2022/07/28 11:43:30;;;;;;;;;;;27.40;40.20;;;;;;1576985;73;1662;-56
2022/07/28 11:45:32;;;;;;;;;;;27.50;40.20;;;;;;1587786;74;738;-57
2022/07/28 11:47:34;;;;;;;;;;;27.50;40.20;;;;;;1583931;73;688;-56
2022/07/28 11:49:36;;;;;;;;;;;27.50;40.20;;;;;;1584245;73;713;-59
2022/07/28 11:51:38;;;;;;;;;;;27.50;40.20;;;;;;1574310;73;702;-57
2022/07/28 11:53:43;;;;;;;;;;;27.50;40.20;;;;;;1579315;74;1502;-56
2022/07/28 11:55:45;;;;;;;;;;;27.50;40.30;;;;;;1588207;74;691;-56
2022/07/28 11:57:47;;;;;;;;;;;27.50;40.20;;;;;;1576931;73;699;-56
2022/07/28 11:59:52;;;;;;;;;;;27.60;40.00;;;;;;1591609;73;1938;-56
2022/07/28 12:01:55;;;;;;;;;;;27.50;40.00;;;;;;1575009;73;1176;-56
2022/07/28 12:04:00;;;;;;;;;;;27.60;40.20;;;;;;1586442;73;705;-56
2022/07/28 12:06:01;;;;;;;;;;;27.50;40.10;;;;;;1585709;73;612;-56
2022/07/28 12:08:04;;;;;;;;;;;27.50;40.10;;;;;;1592248;74;1540;-56
2022/07/28 12:10:23;;;;;;;;;;;27.50;40.20;;;;;;1586306;74;728;-56
2022/07/28 12:12:30;;;;;;;;;;;27.50;40.20;;;;;;1588265;74;1152;-56
2022/07/28 12:14:29;;;;;;;;;;;27.50;40.20;;;;;;1588758;73;1517;-56
2022/07/28 12:16:31;;;;;;;;;;;27.50;40.20;;;;;;1583327;74;604;-56
2022/07/28 12:18:33;;;;;;;;;;;27.60;40.20;;;;;;1584409;73;664;-56
2022/07/28 12:20:35;;;;;;;;;;;27.50;40.20;;;;;;1589229;74;1922;-56